Time;durP1;ratioP1;P1;durP2;ratioP2;P2;SDS_P1;SDS_P2;PMS_P1;PMS_P2;Temp;Humidity;BMP_temperature;BMP_pressure;BME280_temperature;BME280_humidity;BME280_pressure;Samples;Min_cycle;Max_cycle;Signal;HPM_P1;HPM_P2
2021/08/04 10:24:34;;;;;;;13.73;1.23;;;;;;;;;;4954467;27;20427;-81
2021/08/04 10:27:00;;;;;;;3.10;1.48;;;;;;;;;;4963747;28;20045;-81
2021/08/04 10:29:25;;;;;;;1.83;1.02;;;;;;;;;;5046550;28;20033;-81
2021/08/04 10:31:50;;;;;;;5.43;1.20;;;;;;;;;;5047795;28;20487;-81
2021/08/04 10:34:16;;;;;;;4.80;1.30;;;;;;;;;;5032864;28;20033;-81
2021/08/04 10:36:41;;;;;;;2.80;1.10;;;;;;;;;;4872587;28;101359;-82
2021/08/04 12:33:45;;;;;;;5.28;1.30;;;;;;;;;;5090712;27;20423;-88
2021/08/04 12:36:23;;;;;;;14.52;1.48;;;;;;;;;;5080436;28;20502;-86
2021/08/04 13:15:48;;;;;;;8.68;1.25;;;;;;;;;;4991318;27;20814;-78
2021/08/04 13:18:14;;;;;;;4.82;1.20;;;;;;;;;;5034406;28;20040;-78
2021/08/04 13:20:40;;;;;;;6.72;1.30;;;;;;;;;;4982925;28;92332;-78
2021/08/04 13:23:09;;;;;;;13.00;1.80;;;;;;;;;;5012607;28;20033;-79
2021/08/04 13:25:41;;;;;;;7.30;1.80;;;;;;;;;;5029233;28;20041;-77
2021/08/04 13:28:12;;;;;;;4.75;1.42;;;;;;;;;;5028216;28;20036;-78
2021/08/04 13:30:40;;;;;;;3.15;1.60;;;;;;;;;;5027057;28;20034;-79
2021/08/04 13:33:06;;;;;;;3.55;1.10;;;;;;;;;;5035716;28;20068;-77
2021/08/04 13:35:32;;;;;;;2.28;1.20;;;;;;;;;;5029580;28;20022;-77
2021/08/04 13:37:57;;;;;;;7.43;1.75;;;;;;;;;;5030178;28;20080;-78
2021/08/04 13:40:23;;;;;;;8.88;1.45;;;;;;;;;;5030031;28;20030;-79
2021/08/04 13:42:49;;;;;;;3.00;0.98;;;;;;;;;;5036307;28;20030;-78
2021/08/04 13:45:16;;;;;;;4.45;1.00;;;;;;;;;;5011006;28;20045;-80
2021/08/04 13:47:42;;;;;;;3.80;0.90;;;;;;;;;;4809863;28;20499;-78
2021/08/04 16:52:00;;;;;;;7.57;1.58;;;;;;;;;;4995019;27;20750;-84
2021/08/04 16:54:25;;;;;;;6.45;1.27;;;;;;;;;;4120585;28;18068657;-83
2021/08/04 16:56:53;;;;;;;9.20;1.50;;;;;;;;;;4977229;28;20074;-84
2021/08/04 16:59:25;;;;;;;7.13;1.48;;;;;;;;;;4980599;23;20117;-82
2021/08/04 17:01:53;;;;;;;2.85;1.35;;;;;;;;;;5007032;28;20029;-85
2021/08/04 17:04:18;;;;;;;7.03;1.23;;;;;;;;;;4996410;28;20043;-82
2021/08/04 17:06:44;;;;;;;3.40;1.27;;;;;;;;;;4998548;28;20495;-83
2021/08/04 17:09:22;;;;;;;3.20;1.20;;;;;;;;;;5008732;28;20026;-83
2021/08/04 17:11:47;;;;;;;4.30;1.10;;;;;;;;;;5006634;28;20030;-84
2021/08/04 17:14:13;;;;;;;5.88;1.50;;;;;;;;;;5003164;28;20129;-83
2021/08/04 17:16:45;;;;;;;4.18;1.27;;;;;;;;;;5010997;28;20549;-83
2021/08/04 17:19:11;;;;;;;8.93;1.58;;;;;;;;;;5010239;28;20030;-84
2021/08/04 17:21:42;;;;;;;8.98;2.00;;;;;;;;;;5010094;28;20038;-82
2021/08/04 17:24:08;;;;;;;9.20;1.60;;;;;;;;;;5004453;28;20035;-82
2021/08/04 17:26:33;;;;;;;4.47;1.40;;;;;;;;;;5010033;28;20041;-82
2021/08/04 17:28:59;;;;;;;3.15;1.40;;;;;;;;;;5007394;28;20037;-80
2021/08/04 17:31:28;;;;;;;4.88;1.55;;;;;;;;;;5009149;28;20109;-77
2021/08/04 17:33:57;;;;;;;2.28;1.50;;;;;;;;;;4990750;28;20033;-82
2021/08/04 17:36:23;;;;;;;5.93;1.48;;;;;;;;;;5014700;28;20050;-82
2021/08/04 17:38:49;;;;;;;8.68;1.58;;;;;;;;;;5008785;28;20096;-83
2021/08/04 17:41:14;;;;;;;4.82;1.60;;;;;;;;;;5009702;28;20117;-84
2021/08/04 17:43:43;;;;;;;5.82;1.55;;;;;;;;;;5001891;28;20139;-83
2021/08/04 17:46:17;;;;;;;7.30;1.85;;;;;;;;;;5004942;28;20032;-83
2021/08/04 17:48:43;;;;;;;4.28;1.92;;;;;;;;;;5011997;28;20032;-82
2021/08/04 17:51:09;;;;;;;3.92;1.88;;;;;;;;;;5006220;28;20061;-83
2021/08/04 17:53:35;;;;;;;4.50;1.73;;;;;;;;;;5005989;28;20778;-82
2021/08/04 17:56:01;;;;;;;3.63;1.77;;;;;;;;;;4939745;28;20042;-82
2021/08/04 17:58:27;;;;;;;2.53;1.67;;;;;;;;;;4998229;28;20064;-78
2021/08/04 18:00:55;;;;;;;4.68;2.05;;;;;;;;;;4996935;28;20050;-78
2021/08/04 18:03:24;;;;;;;4.47;1.90;;;;;;;;;;4979120;28;20054;-79
2021/08/04 18:05:49;;;;;;;3.58;1.60;;;;;;;;;;4980850;28;20092;-79
2021/08/04 18:08:15;;;;;;;6.53;1.60;;;;;;;;;;4976026;28;20525;-79
2021/08/04 18:10:40;;;;;;;5.75;1.50;;;;;;;;;;4981953;28;20428;-78
2021/08/04 18:13:06;;;;;;;2.70;1.40;;;;;;;;;;4991882;28;20030;-77
2021/08/04 18:15:32;;;;;;;5.47;1.80;;;;;;;;;;5009056;28;20045;-78
2021/08/04 18:17:57;;;;;;;2.33;1.42;;;;;;;;;;5005241;28;20026;-80
2021/08/04 18:20:23;;;;;;;10.70;1.80;;;;;;;;;;4980677;28;20046;-77
2021/08/04 18:22:49;;;;;;;4.63;1.42;;;;;;;;;;4988077;28;20037;-80
2021/08/04 18:25:15;;;;;;;5.50;1.35;;;;;;;;;;5003831;28;20038;-81
2021/08/04 18:27:41;;;;;;;4.88;1.70;;;;;;;;;;4994949;28;20030;-81
2021/08/04 18:30:08;;;;;;;7.93;2.17;;;;;;;;;;5007183;28;20034;-84
2021/08/04 18:32:37;;;;;;;9.00;2.42;;;;;;;;;;4982073;28;20049;-81
2021/08/04 18:35:03;;;;;;;7.90;2.70;;;;;;;;;;4994734;28;20499;-82
2021/08/04 18:37:28;;;;;;;6.97;2.30;;;;;;;;;;4985755;28;20089;-83
2021/08/04 18:39:54;;;;;;;7.60;2.60;;;;;;;;;;4993870;28;20444;-82
2021/08/04 18:42:25;;;;;;;9.50;3.67;;;;;;;;;;4988157;28;20037;-84
2021/08/04 18:44:51;;;;;;;14.52;4.65;;;;;;;;;;4995828;28;20034;-82
2021/08/04 18:47:17;;;;;;;12.50;3.60;;;;;;;;;;4993425;28;20085;-82
2021/08/04 18:49:43;;;;;;;8.90;3.65;;;;;;;;;;4995734;28;20030;-83
2021/08/04 18:52:20;;;;;;;15.45;3.80;;;;;;;;;;4995724;28;20062;-82
2021/08/04 18:54:46;;;;;;;8.00;2.65;;;;;;;;;;5010603;28;20113;-82
2021/08/04 18:57:11;;;;;;;10.32;3.53;;;;;;;;;;4995264;28;20457;-83
2021/08/04 18:59:37;;;;;;;12.95;3.28;;;;;;;;;;4994135;28;20058;-81
2021/08/04 19:02:05;;;;;;;11.30;3.25;;;;;;;;;;4996342;28;20038;-82
2021/08/04 19:04:31;;;;;;;8.63;2.95;;;;;;;;;;4995041;28;20115;-80
2021/08/04 19:06:56;;;;;;;9.18;2.92;;;;;;;;;;4995018;28;20065;-79
2021/08/04 19:09:22;;;;;;;10.65;2.60;;;;;;;;;;4993765;28;20030;-82
2021/08/04 19:11:48;;;;;;;7.32;2.65;;;;;;;;;;4995224;28;20116;-81
2021/08/04 19:14:13;;;;;;;4.97;1.95;;;;;;;;;;4993775;28;20075;-81
2021/08/04 19:16:39;;;;;;;4.78;2.50;;;;;;;;;;4994596;28;20113;-81
2021/08/04 19:19:04;;;;;;;11.68;2.53;;;;;;;;;;4840940;28;20034;-82
2021/08/04 19:21:48;;;;;;;17.52;3.10;;;;;;;;;;4993879;28;20062;-84
2021/08/04 19:24:14;;;;;;;13.48;2.75;;;;;;;;;;4996718;28;20503;-81
2021/08/04 19:26:39;;;;;;;16.15;3.40;;;;;;;;;;4947707;28;20046;-82
2021/08/04 19:29:05;;;;;;;5.75;2.13;;;;;;;;;;4995515;28;20085;-82
2021/08/04 19:31:31;;;;;;;8.15;2.65;;;;;;;;;;4993843;28;20030;-82
2021/08/04 19:33:57;;;;;;;7.93;2.60;;;;;;;;;;4990259;28;20030;-81
2021/08/04 19:36:23;;;;;;;10.77;3.13;;;;;;;;;;4995013;28;20368;-81
2021/08/04 19:38:48;;;;;;;17.33;3.60;;;;;;;;;;4993308;28;20038;-82
2021/08/04 19:41:14;;;;;;;14.90;4.53;;;;;;;;;;4993993;28;20050;-80
2021/08/04 19:43:40;;;;;;;13.65;3.40;;;;;;;;;;4995458;28;20092;-81
2021/08/04 19:46:05;;;;;;;12.77;3.72;;;;;;;;;;4993458;28;20518;-78
2021/08/04 19:48:34;;;;;;;21.13;4.05;;;;;;;;;;4995041;28;20109;-83
2021/08/04 19:50:59;;;;;;;12.75;2.92;;;;;;;;;;4994098;28;20076;-78
2021/08/04 19:53:31;;;;;;;9.90;2.90;;;;;;;;;;4998746;28;20493;-80
2021/08/04 19:55:57;;;;;;;12.63;3.22;;;;;;;;;;4992034;28;20180;-82
2021/08/04 19:58:22;;;;;;;14.55;2.90;;;;;;;;;;4992282;28;20065;-80
2021/08/04 20:00:48;;;;;;;11.40;2.95;;;;;;;;;;4992757;28;20050;-82
2021/08/04 20:03:14;;;;;;;7.30;2.40;;;;;;;;;;4993828;28;20433;-81
2021/08/04 20:05:39;;;;;;;13.63;2.92;;;;;;;;;;4865989;28;20513;-81
2021/08/04 20:08:05;;;;;;;7.15;2.45;;;;;;;;;;4979710;28;20019;-81
2021/08/04 20:10:32;;;;;;;11.55;2.97;;;;;;;;;;4989936;28;20034;-78
2021/08/04 20:12:57;;;;;;;16.08;3.25;;;;;;;;;;4993976;28;20036;-79
2021/08/04 20:15:23;;;;;;;12.13;3.22;;;;;;;;;;4941242;28;20038;-79
2021/08/04 20:17:51;;;;;;;11.77;3.30;;;;;;;;;;4880722;28;133009;-79
2021/08/04 20:20:17;;;;;;;14.60;3.40;;;;;;;;;;4981487;28;20096;-80
2021/08/04 20:22:45;;;;;;;9.93;3.85;;;;;;;;;;4987409;28;20101;-79
2021/08/04 20:25:12;;;;;;;12.23;3.83;;;;;;;;;;4993530;28;20393;-79
2021/08/04 20:27:39;;;;;;;11.70;3.55;;;;;;;;;;4965388;28;20062;-79
2021/08/04 20:30:05;;;;;;;9.88;3.53;;;;;;;;;;4997382;28;20080;-83
2021/08/04 20:32:30;;;;;;;15.70;4.55;;;;;;;;;;4992455;28;20117;-81
2021/08/04 20:34:56;;;;;;;17.17;6.90;;;;;;;;;;4992812;28;20030;-82
2021/08/04 20:37:41;;;;;;;31.63;8.55;;;;;;;;;;4997768;28;20031;-84
2021/08/04 20:55:09;;;;;;;16.05;6.60;;;;;;;;;;5108960;27;20409;-82
2021/08/04 20:57:35;;;;;;;21.92;7.32;;;;;;;;;;5108570;28;20080;-83
2021/08/04 21:00:00;;;;;;;24.75;7.95;;;;;;;;;;5107203;28;20053;-83
2021/08/04 21:02:27;;;;;;;17.02;8.00;;;;;;;;;;5109552;28;20110;-82
2021/08/04 21:04:52;;;;;;;21.05;7.60;;;;;;;;;;5108854;28;20043;-81
2021/08/04 21:07:18;;;;;;;21.80;8.48;;;;;;;;;;5109411;28;20127;-81
2021/08/04 21:09:43;;;;;;;19.55;7.38;;;;;;;;;;5107902;28;20024;-82
2021/08/04 21:12:09;;;;;;;15.50;7.00;;;;;;;;;;5109481;28;20503;-81
2021/08/04 21:14:35;;;;;;;18.35;6.30;;;;;;;;;;5109259;28;20024;-81
2021/08/04 21:17:00;;;;;;;14.00;5.28;;;;;;;;;;5107463;28;20397;-81
2021/08/04 21:19:26;;;;;;;12.63;4.93;;;;;;;;;;5108639;28;20028;-83
2021/08/04 21:21:51;;;;;;;12.65;5.20;;;;;;;;;;5109412;28;20022;-83
2021/08/04 21:24:17;;;;;;;10.07;4.80;;;;;;;;;;5108455;28;20043;-81
2021/08/04 21:26:42;;;;;;;8.35;3.55;;;;;;;;;;5107726;28;20020;-81
2021/08/04 21:29:08;;;;;;;11.38;3.83;;;;;;;;;;5108883;28;20366;-82
2021/08/04 21:31:34;;;;;;;10.43;3.75;;;;;;;;;;5107781;28;20107;-82
2021/08/04 21:33:59;;;;;;;8.63;3.20;;;;;;;;;;5108644;28;20084;-82
2021/08/04 21:36:25;;;;;;;7.97;3.30;;;;;;;;;;5108548;28;20016;-81
2021/08/04 21:38:50;;;;;;;7.78;3.45;;;;;;;;;;5107156;28;20024;-82
2021/08/04 21:41:16;;;;;;;9.43;3.65;;;;;;;;;;5108979;28;20032;-82
2021/08/04 21:43:41;;;;;;;6.70;3.20;;;;;;;;;;5108537;28;20455;-83
2021/08/04 21:46:07;;;;;;;5.53;3.28;;;;;;;;;;5077571;28;20481;-82
2021/08/04 21:48:32;;;;;;;7.80;3.25;;;;;;;;;;5083693;28;20032;-82
2021/08/04 21:50:58;;;;;;;5.68;2.85;;;;;;;;;;5077232;28;20024;-82
2021/08/04 21:53:24;;;;;;;7.75;3.40;;;;;;;;;;5082933;28;20090;-82
2021/08/04 21:55:49;;;;;;;8.43;3.10;;;;;;;;;;5075385;28;20028;-82
2021/08/04 21:58:16;;;;;;;6.68;2.95;;;;;;;;;;5070565;28;20028;-83
2021/08/04 22:00:42;;;;;;;7.63;3.00;;;;;;;;;;5075541;28;20591;-83
2021/08/04 22:03:07;;;;;;;7.32;3.03;;;;;;;;;;5071822;28;20119;-83
2021/08/04 22:05:36;;;;;;;12.80;3.67;;;;;;;;;;5074487;28;20032;-82
2021/08/04 22:08:18;;;;;;;10.88;3.20;;;;;;;;;;5073952;28;20166;-82
2021/08/04 22:10:43;;;;;;;6.65;2.78;;;;;;;;;;5074026;28;20854;-83
2021/08/04 22:13:18;;;;;;;9.52;2.88;;;;;;;;;;5074277;28;20119;-82
2021/08/04 22:15:44;;;;;;;10.63;4.03;;;;;;;;;;5073367;28;20036;-82
2021/08/04 22:18:10;;;;;;;7.75;3.80;;;;;;;;;;5075158;28;20031;-82
2021/08/04 22:20:37;;;;;;;9.93;3.30;;;;;;;;;;5073006;28;20032;-88
